.
WxDataArchive / Data Records for 2009-03-01
2009-02-28 March 2009 2009-03-02

Data Records for Sunday, 01 March 2009

Time	Temp	Chill	HIndex	Humid	Dewpt	 Wind 	HiWind	WindDir	Rain 	Barom 
-----	----	-----	------	-----	-----	------	------	-------	-----	----- 
00:00	18.0	18.0	18.0	83	13.7	0	0	---	0.00	30.328 
00:05	17.8	17.8	17.8	83	13.5	0	0	---	0.00	30.325 
00:10	17.7	17.7	17.7	83	13.4	0	0	---	0.00	30.324 
00:15	17.5	17.5	17.5	83	13.2	0	0	---	0.00	30.324 
00:20	17.3	17.3	17.3	83	13.0	0	0	---	0.00	30.321 
00:25	17.3	17.3	17.3	84	13.3	0	0	---	0.00	30.322 
00:30	17.3	17.3	17.3	84	13.3	0	0	---	0.00	30.319 
00:35	17.2	17.2	17.2	84	13.2	0	0	---	0.00	30.318 
00:40	17.0	17.0	17.0	84	13.0	0	0	---	0.00	30.316 
00:45	17.0	17.0	17.0	84	13.0	0	0	---	0.00	30.314 
00:50	16.9	16.9	16.9	85	13.2	0	0	---	0.00	30.314 
00:55	16.9	16.9	16.9	85	13.2	0	0	---	0.00	30.312 
01:00	16.7	16.7	16.7	85	13.0	0	0	---	0.00	30.312 
01:05	16.7	16.7	16.7	85	13.0	0	0	---	0.00	30.310 
01:10	16.5	16.5	16.5	85	12.8	0	0	---	0.00	30.311 
01:15	16.4	16.4	16.4	86	13.0	0	0	---	0.00	30.311 
01:20	16.2	16.2	16.2	86	12.8	0	0	---	0.00	30.311 
01:25	16.1	16.1	16.1	86	12.7	0	0	---	0.00	30.312 
01:30	15.9	15.9	15.9	86	12.5	0	0	---	0.00	30.314 
01:35	15.9	15.9	15.9	86	12.5	0	0	---	0.00	30.314 
01:40	16.1	16.1	16.1	87	12.9	0	0	---	0.00	30.314 
01:45	16.2	16.2	16.2	87	13.0	0	0	---	0.00	30.313 
01:50	16.2	16.2	16.2	87	13.0	0	0	---	0.00	30.315 
01:55	16.4	16.4	16.4	87	13.2	0	0	---	0.00	30.316 
02:00	16.4	16.4	16.4	88	13.5	0	0	---	0.00	30.316 
02:05	16.5	16.5	16.5	88	13.6	0	0	---	0.00	30.316 
02:10	16.4	16.4	16.4	88	13.5	0	0	---	0.00	30.317 
02:15	16.4	16.4	16.4	88	13.5	0	0	---	0.00	30.320 
02:20	16.4	16.4	16.4	88	13.5	0	0	---	0.00	30.320 
02:25	16.5	16.5	16.5	88	13.6	0	0	---	0.00	30.318 
02:30	16.7	16.7	16.7	88	13.8	0	0	---	0.00	30.315 
02:35	16.7	16.7	16.7	88	13.8	0	0	---	0.00	30.314 
02:40	16.9	16.9	16.9	88	14.0	0	0	---	0.00	30.312 
02:45	17.0	17.0	17.0	88	14.1	0	0	---	0.00	30.311 
02:50	17.2	17.2	17.2	88	14.3	0	0	---	0.00	30.311 
02:55	17.3	17.3	17.3	88	14.4	0	0	---	0.00	30.311 
03:00	17.5	17.5	17.5	88	14.6	0	0	---	0.00	30.310 
03:05	17.5	17.5	17.5	88	14.6	0	0	---	0.00	30.309 
03:10	17.5	17.5	17.5	87	14.3	0	0	---	0.00	30.308 
03:15	17.5	17.5	17.5	87	14.3	0	0	---	0.00	30.308 
03:20	17.3	17.3	17.3	87	14.1	0	0	---	0.00	30.308 
03:25	17.3	17.3	17.3	87	14.1	0	0	---	0.00	30.308 
03:30	17.2	17.2	17.2	86	13.7	0	0	---	0.00	30.306 
03:35	17.2	17.2	17.2	86	13.7	0	0	---	0.00	30.305 
03:40	17.2	17.2	17.2	86	13.7	0	0	---	0.00	30.306 
03:45	17.2	17.2	17.2	86	13.7	0	0	---	0.00	30.306 
03:50	17.2	17.2	17.2	86	13.7	0	0	---	0.00	30.302 
03:55	17.0	17.0	17.0	86	13.6	0	0	---	0.00	30.303 
04:00	17.0	17.0	17.0	86	13.6	0	0	---	0.00	30.307 
04:05	17.3	17.3	17.3	86	13.8	0	1	90	0.00	30.310 
04:10	17.5	17.5	17.5	86	14.0	0	1	90	0.00	30.311 
04:15	17.8	17.8	17.8	86	14.3	0	1	90	0.00	30.314 
04:20	18.0	18.0	18.0	85	14.3	0	1	90	0.00	30.314 
04:25	18.1	18.1	18.1	85	14.4	0	0	---	0.00	30.316 
04:30	18.1	18.1	18.1	85	14.4	0	1	90	0.00	30.318 
04:35	18.3	18.3	18.3	84	14.3	0	1	90	0.00	30.318 
04:40	18.4	18.4	18.4	84	14.4	0	0	---	0.00	30.320 
04:45	18.4	18.4	18.4	84	14.4	0	0	---	0.00	30.318 
04:50	18.3	18.3	18.3	84	14.3	0	0	---	0.00	30.319 
04:55	18.3	18.3	18.3	84	14.3	0	0	---	0.00	30.320 
05:00	18.1	18.1	18.1	84	14.1	0	0	---	0.00	30.322 
05:05	18.1	18.1	18.1	84	14.1	0	0	---	0.00	30.322 
05:10	18.3	18.3	18.3	84	14.3	0	1	68	0.00	30.321 
05:15	18.4	18.4	18.4	84	14.4	0	1	68	0.00	30.323 
05:20	18.4	18.4	18.4	84	14.4	0	1	68	0.00	30.322 
05:25	18.6	18.6	18.6	84	14.6	0	1	68	0.00	30.323 
05:30	18.6	18.6	18.6	83	14.3	0	1	68	0.00	30.324 
05:35	18.6	18.6	18.6	83	14.3	0	1	68	0.00	30.324 
05:40	18.8	18.8	18.8	83	14.5	0	2	68	0.00	30.323 
05:45	18.9	18.9	18.9	83	14.6	0	2	68	0.00	30.325 
05:50	18.9	18.9	18.9	83	14.6	0	2	45	0.00	30.326 
05:55	18.9	18.9	18.9	83	14.6	0	1	338	0.00	30.325 
06:00	18.9	18.9	18.9	83	14.6	0	1	338	0.00	30.326 
06:05	18.9	18.9	18.9	82	14.3	0	1	338	0.00	30.326 
06:10	18.8	18.8	18.8	82	14.2	0	0	---	0.00	30.326 
06:15	18.6	18.6	18.6	82	14.0	0	2	338	0.00	30.327 
06:20	18.6	18.6	18.6	82	14.0	0	1	338	0.00	30.328 
06:25	18.4	18.4	18.4	82	13.8	0	1	338	0.00	30.330 
06:30	18.4	18.4	18.4	82	13.8	0	1	338	0.00	30.335 
06:35	18.4	18.4	18.4	82	13.8	0	2	338	0.00	30.339 
06:40	18.4	18.4	18.4	82	13.8	0	1	338	0.00	30.340 
06:45	18.4	18.4	18.4	82	13.8	0	2	338	0.00	30.342 
06:50	18.3	18.3	18.3	82	13.7	0	2	338	0.00	30.341 
06:55	18.3	18.3	18.3	81	13.5	0	1	338	0.00	30.341 
07:00	18.3	18.3	18.3	81	13.5	0	1	338	0.00	30.340 
07:05	18.3	18.3	18.3	81	13.5	0	4	22	0.00	30.341 
07:10	18.3	18.3	18.3	80	13.2	0	2	22	0.00	30.340 
07:15	18.3	18.3	18.3	80	13.2	0	1	22	0.00	30.341 
07:20	18.4	18.4	18.4	79	13.0	0	1	22	0.00	30.343 
07:25	18.4	18.4	18.4	79	13.0	0	2	0	0.00	30.344 
07:30	18.6	18.6	18.6	78	12.9	0	2	0	0.00	30.345 
07:35	18.8	18.8	18.8	77	12.8	0	2	0	0.00	30.345 
07:40	18.9	18.9	18.9	76	12.6	0	3	338	0.00	30.351 
07:45	19.1	19.1	19.1	75	12.5	1	3	292	0.00	30.358 
07:50	19.2	19.2	19.2	75	12.6	0	4	0	0.00	30.359 
07:55	19.4	19.4	19.4	74	12.5	1	4	315	0.00	30.360 
08:00	19.5	19.5	19.5	73	12.3	1	6	22	0.00	30.359 
08:05	19.9	19.9	19.9	72	12.4	1	5	22	0.00	30.361 
08:10	20.0	20.0	20.0	72	12.5	1	3	0	0.00	30.363 
08:15	20.2	20.2	20.2	71	12.3	1	3	45	0.00	30.364 
08:20	20.3	20.3	20.3	71	12.4	1	5	0	0.00	30.367 
08:25	20.5	20.5	20.5	70	12.3	1	4	22	0.00	30.368 
08:30	20.8	20.8	20.8	70	12.6	1	3	0	0.00	30.369 
08:35	21.0	21.0	21.0	70	12.8	1	7	45	0.00	30.370 
08:40	21.1	21.1	21.1	70	12.9	1	3	45	0.00	30.370 
08:45	21.4	21.4	21.4	69	12.8	1	5	22	0.00	30.374 
08:50	21.6	21.6	21.6	69	13.0	2	5	22	0.00	30.374 
08:55	21.8	21.8	21.8	68	12.9	1	4	338	0.00	30.374 
09:00	22.1	22.1	22.1	67	12.8	2	5	0	0.00	30.379 
09:05	22.2	22.2	22.2	67	12.9	1	5	45	0.00	30.381 
09:10	22.4	22.4	22.4	66	12.8	2	9	338	0.00	30.381 
09:15	22.9	22.9	22.9	67	13.6	2	6	22	0.00	30.385 
09:20	22.9	22.9	22.9	63	12.2	2	9	338	0.00	30.386 
09:25	23.2	23.2	23.2	62	12.1	2	5	338	0.00	30.387 
09:30	23.5	23.5	23.5	63	12.8	2	7	0	0.00	30.387 
09:35	23.8	23.8	23.8	62	12.7	1	6	45	0.00	30.385 
09:40	23.9	23.9	23.9	61	12.4	2	7	45	0.00	30.386 
09:45	23.9	23.9	23.9	62	12.8	2	10	22	0.00	30.389 
09:50	24.1	24.1	24.1	59	11.9	2	6	0	0.00	30.389 
09:55	24.1	24.1	24.1	59	11.9	2	11	22	0.00	30.390 
10:00	24.2	24.2	24.2	59	12.0	2	7	22	0.00	30.390 
10:05	24.4	24.4	24.4	58	11.8	3	7	338	0.00	30.392 
10:10	24.8	24.8	24.8	61	13.3	3	11	45	0.00	30.390 
10:15	25.3	25.3	25.3	60	13.4	2	10	0	0.00	30.390 
10:20	25.6	25.6	25.6	59	13.3	2	6	22	0.00	30.389 
10:25	25.4	25.4	25.4	57	12.3	2	6	22	0.00	30.390 
10:30	25.3	25.3	25.3	59	13.0	2	6	45	0.00	30.389 
10:35	25.0	25.0	25.0	58	12.3	2	7	45	0.00	30.388 
10:40	25.1	25.1	25.1	59	12.8	2	5	0	0.00	30.388 
10:45	25.6	25.6	25.6	59	13.3	2	6	0	0.00	30.388 
10:50	26.1	26.1	26.1	59	13.8	2	6	0	0.00	30.386 
10:55	25.6	25.6	25.6	58	12.9	2	5	338	0.00	30.388 
11:00	25.1	25.1	25.1	60	13.2	2	7	0	0.00	30.391 
11:05	25.4	25.4	25.4	60	13.5	1	4	0	0.00	30.393 
11:10	25.1	25.1	25.1	59	12.8	2	10	22	0.00	30.394 
11:15	25.3	25.3	25.3	60	13.4	2	8	338	0.00	30.394 
11:20	25.7	25.7	25.7	60	13.8	2	5	22	0.00	30.392 
11:25	25.7	25.7	25.7	58	13.0	2	10	0	0.00	30.390 
11:30	25.6	25.6	25.6	58	12.9	3	6	338	0.00	30.392 
11:35	25.6	25.6	25.6	57	12.5	2	9	0	0.00	30.387 
11:40	26.4	26.4	26.4	58	13.7	1	5	0	0.00	30.387 
11:45	26.7	26.7	26.7	57	13.5	2	9	22	0.00	30.389 
11:50	26.1	26.1	26.1	58	13.4	1	5	0	0.00	30.389 
11:55	25.4	25.4	25.4	58	12.7	1	5	45	0.00	30.392 
12:00	26.3	26.3	26.3	57	13.2	2	5	22	0.00	30.391 
12:05	27.2	27.2	27.2	58	14.4	3	7	45	0.00	30.390 
12:10	27.2	27.2	27.2	56	13.6	2	7	22	0.00	30.389 
12:15	26.0	26.0	26.0	55	12.1	2	7	22	0.00	30.392 
12:20	25.6	25.6	25.6	56	12.1	2	7	22	0.00	30.393 
12:25	25.6	25.6	25.6	56	12.1	2	7	0	0.00	30.392 
12:30	26.0	26.0	26.0	60	14.0	3	16	338	0.00	30.391 
12:35	26.4	26.4	26.4	56	12.9	3	7	22	0.00	30.390 
12:40	26.0	26.0	26.0	55	12.1	2	6	22	0.00	30.392 
12:45	25.3	25.3	25.3	56	11.8	2	6	0	0.00	30.393 
12:50	25.3	25.3	25.3	58	12.6	2	7	0	0.00	30.392 
12:55	25.4	25.4	25.4	57	12.3	2	6	338	0.00	30.393 
13:00	25.0	25.0	25.0	58	12.3	2	7	22	0.00	30.393 
13:05	25.0	25.0	25.0	58	12.3	2	10	22	0.00	30.394 
13:10	25.3	25.3	25.3	59	13.0	2	6	338	0.00	30.393 
13:15	25.0	25.0	25.0	59	12.7	2	4	270	0.00	30.394 
13:20	24.7	24.7	24.7	58	12.1	2	10	315	0.00	30.395 
13:25	24.5	24.5	24.5	58	11.9	2	6	338	0.00	30.398 
13:30	25.1	25.1	25.1	59	12.8	1	5	315	0.00	30.395 
13:35	25.1	25.1	25.1	57	12.0	2	5	338	0.00	30.399 
13:40	24.8	24.8	24.8	58	12.1	2	7	0	0.00	30.399 
13:45	24.7	24.7	24.7	59	12.4	2	6	338	0.00	30.399 
13:50	25.0	25.0	25.0	58	12.3	2	4	45	0.00	30.399 
13:55	25.4	25.4	25.4	58	12.7	1	6	0	0.00	30.403 
14:00	25.3	25.3	25.3	58	12.6	2	6	0	0.00	30.408 
14:05	25.3	25.3	25.3	57	12.2	1	6	22	0.00	30.407 
14:10	25.0	25.0	25.0	57	11.9	2	5	22	0.00	30.408 
14:15	24.7	24.7	24.7	57	11.7	2	5	22	0.00	30.409 
14:20	24.4	24.4	24.4	56	11.0	2	7	0	0.00	30.410 
14:25	24.5	24.5	24.5	58	11.9	2	5	22	0.00	30.409 
14:30	24.5	24.5	24.5	57	11.5	2	7	22	0.00	30.409 
14:35	24.8	24.8	24.8	58	12.1	2	5	315	0.00	30.409 
14:40	25.1	25.1	25.1	54	10.8	2	7	22	0.00	30.410 
14:45	25.0	25.0	25.0	53	10.3	2	9	22	0.00	30.408 
14:50	25.0	25.0	25.0	54	10.7	2	6	22	0.00	30.409 
14:55	25.4	25.4	25.4	54	11.1	2	7	22	0.00	30.408 
15:00	25.1	25.1	25.1	53	10.4	2	5	315	0.00	30.408 
15:05	25.4	25.4	25.4	52	10.3	2	7	22	0.00	30.408 
15:10	25.0	25.0	25.0	52	9.9	2	12	0	0.00	30.407 
15:15	25.0	25.0	25.0	52	9.9	2	7	22	0.00	30.406 
15:20	25.0	25.0	25.0	53	10.3	1	6	45	0.00	30.407 
15:25	24.8	24.8	24.8	52	9.7	3	12	90	0.00	30.407 
15:30	24.4	24.4	24.4	52	9.3	2	9	68	0.00	30.409 
15:35	24.1	24.1	24.1	53	9.5	2	9	22	0.00	30.410 
15:40	24.1	24.1	24.1	53	9.5	2	6	0	0.00	30.411 
15:45	23.9	23.9	23.9	52	8.9	2	7	22	0.00	30.411 
15:50	23.9	23.9	23.9	52	8.9	2	5	338	0.00	30.411 
15:55	23.6	23.6	23.6	51	8.2	3	9	22	0.00	30.414 
16:00	23.8	23.8	23.8	52	8.8	2	6	338	0.00	30.415 
16:05	24.1	24.1	24.1	52	9.1	2	7	315	0.00	30.411 
16:10	23.9	23.9	23.9	51	8.4	2	7	22	0.00	30.410 
16:15	23.8	23.8	23.8	51	8.3	2	6	338	0.00	30.408 
16:20	23.9	23.9	23.9	51	8.4	2	5	22	0.00	30.408 
16:25	24.2	24.2	24.2	51	8.7	1	4	315	0.00	30.407 
16:30	24.1	24.1	24.1	50	8.2	2	5	0	0.00	30.407 
16:35	24.5	24.5	24.5	52	9.4	1	3	22	0.00	30.408 
16:40	24.2	24.2	24.2	49	7.8	3	10	22	0.00	30.406 
16:45	24.1	24.1	24.1	49	7.7	2	6	338	0.00	30.407 
16:50	23.8	23.8	23.8	49	7.5	3	9	315	0.00	30.406 
16:55	23.9	23.9	23.9	50	8.0	1	6	22	0.00	30.407 
17:00	23.8	23.8	23.8	50	7.9	1	7	338	0.00	30.409 
17:05	23.8	23.8	23.8	50	7.9	1	6	45	0.00	30.409 
17:10	23.6	23.6	23.6	50	7.7	1	6	22	0.00	30.409 
17:15	23.6	23.6	23.6	49	7.3	1	7	0	0.00	30.413 
17:20	23.6	23.6	23.6	50	7.7	1	7	22	0.00	30.414 
17:25	23.6	23.6	23.6	49	7.3	1	5	112	0.00	30.414 
17:30	23.3	23.3	23.3	48	6.5	2	5	338	0.00	30.420 
17:35	23.0	23.0	23.0	48	6.3	2	7	338	0.00	30.422 
17:40	22.9	22.9	22.9	48	6.2	2	5	0	0.00	30.424 
17:45	22.7	22.7	22.7	48	6.0	1	4	338	0.00	30.426 
17:50	22.5	22.5	22.5	48	5.8	2	6	22	0.00	30.429 
17:55	22.5	22.5	22.5	49	6.3	1	4	22	0.00	30.434 
18:00	22.4	22.4	22.4	49	6.2	1	9	68	0.00	30.439 
18:05	22.2	22.2	22.2	50	6.4	1	5	68	0.00	30.443 
18:10	22.1	22.1	22.1	50	6.3	1	4	22	0.00	30.445 
18:15	21.9	21.9	21.9	50	6.1	1	6	90	0.00	30.445 
18:20	21.8	21.8	21.8	49	5.6	1	4	22	0.00	30.444 
18:25	21.6	21.6	21.6	49	5.4	2	9	22	0.00	30.445 
18:30	21.4	21.4	21.4	50	5.7	1	6	22	0.00	30.452 
18:35	21.3	21.3	21.3	51	6.0	1	4	45	0.00	30.452 
18:40	21.1	21.1	21.1	52	6.3	1	3	68	0.00	30.455 
18:45	21.0	21.0	21.0	52	6.2	1	4	68	0.00	30.457 
18:50	20.8	20.8	20.8	51	5.6	1	6	90	0.00	30.456 
18:55	20.6	20.6	20.6	51	5.4	2	4	90	0.00	30.457 
19:00	20.6	20.6	20.6	50	4.9	2	6	90	0.00	30.458 
19:05	20.5	20.5	20.5	51	5.3	1	6	68	0.00	30.457 
19:10	20.3	20.3	20.3	51	5.1	1	2	45	0.00	30.456 
19:15	20.2	20.2	20.2	51	5.0	1	5	135	0.00	30.456 
19:20	20.0	20.0	20.0	53	5.7	1	4	68	0.00	30.455 
19:25	19.9	19.9	19.9	52	5.1	0	2	45	0.00	30.454 
19:30	19.7	19.7	19.7	53	5.4	1	4	112	0.00	30.455 
19:35	19.7	19.7	19.7	53	5.4	0	5	22	0.00	30.455 
19:40	19.5	19.5	19.5	54	5.6	0	4	90	0.00	30.455 
19:45	19.4	19.4	19.4	53	5.1	1	4	68	0.00	30.457 
19:50	19.4	19.4	19.4	52	4.7	1	3	45	0.00	30.457 
19:55	19.2	19.2	19.2	52	4.5	0	2	45	0.00	30.456 
20:00	19.2	19.2	19.2	51	4.1	0	2	45	0.00	30.450 
20:05	19.1	19.1	19.1	51	4.0	1	5	90	0.00	30.450 
20:10	19.1	19.1	19.1	51	4.0	1	4	45	0.00	30.450 
20:15	18.9	18.9	18.9	52	4.2	0	1	22	0.00	30.453 
20:20	18.9	18.9	18.9	53	4.6	1	5	45	0.00	30.455 
20:25	18.8	18.8	18.8	53	4.5	1	3	45	0.00	30.455 
20:30	18.6	18.6	18.6	53	4.3	1	3	22	0.00	30.456 
20:35	18.6	18.6	18.6	52	3.9	1	3	22	0.00	30.456 
20:40	18.6	18.6	18.6	53	4.3	0	3	270	0.00	30.457 
20:45	18.4	18.4	18.4	53	4.2	1	5	22	0.00	30.459 
20:50	18.4	18.4	18.4	53	4.2	1	5	22	0.00	30.461 
20:55	18.3	18.3	18.3	54	4.5	0	2	45	0.00	30.461 
21:00	18.1	18.1	18.1	54	4.3	0	2	338	0.00	30.462 
21:05	18.0	18.0	18.0	54	4.2	0	3	338	0.00	30.461 
21:10	18.0	18.0	18.0	53	3.8	1	3	315	0.00	30.459 
21:15	17.8	17.8	17.8	53	3.6	0	2	338	0.00	30.458 
21:20	17.8	17.8	17.8	53	3.6	0	1	0	0.00	30.458 
21:25	17.7	17.7	17.7	53	3.5	1	3	22	0.00	30.456 
21:30	17.7	17.7	17.7	52	3.1	1	3	338	0.00	30.458 
21:35	17.5	17.5	17.5	52	2.9	1	3	0	0.00	30.459 
21:40	17.5	17.5	17.5	52	2.9	0	2	248	0.00	30.462 
21:45	17.3	17.3	17.3	53	3.1	0	2	270	0.00	30.467 
21:50	17.3	17.3	17.3	53	3.1	1	4	22	0.00	30.468 
21:55	17.2	17.2	17.2	53	3.0	1	5	315	0.00	30.468 
22:00	17.2	17.2	17.2	53	3.0	1	4	22	0.00	30.470 
22:05	17.2	17.2	17.2	53	3.0	0	3	45	0.00	30.470 
22:10	17.0	17.0	17.0	53	2.9	1	5	22	0.00	30.470 
22:15	17.0	17.0	17.0	53	2.9	1	4	338	0.00	30.470 
22:20	17.0	17.0	17.0	53	2.9	1	6	315	0.00	30.470 
22:25	16.9	16.9	16.9	53	2.8	1	3	0	0.00	30.471 
22:30	16.9	16.9	16.9	53	2.8	1	3	0	0.00	30.471 
22:35	16.7	16.7	16.7	53	2.6	1	4	22	0.00	30.470 
22:40	16.7	16.7	16.7	53	2.6	1	4	270	0.00	30.470 
22:45	16.7	16.7	16.7	53	2.6	1	5	22	0.00	30.469 
22:50	16.5	16.5	16.5	52	2.0	1	3	22	0.00	30.466 
22:55	16.5	16.5	16.5	51	1.6	1	5	0	0.00	30.468 
23:00	16.5	16.5	16.5	51	1.6	1	4	22	0.00	30.466 
23:05	16.4	16.4	16.4	51	1.5	1	4	22	0.00	30.465 
23:10	16.4	16.4	16.4	51	1.5	1	6	0	0.00	30.469 
23:15	16.2	16.2	16.2	51	1.3	1	5	22	0.00	30.468 
23:20	16.2	16.2	16.2	51	1.3	1	6	45	0.00	30.468 
23:25	16.2	16.2	16.2	51	1.3	1	4	45	0.00	30.465 
23:30	16.1	16.1	16.1	51	1.2	1	4	45	0.00	30.463 
23:35	15.9	15.9	15.9	51	1.0	1	3	22	0.00	30.463 
23:40	15.9	15.9	15.9	51	1.0	1	5	315	0.00	30.462 
23:45	15.7	15.7	15.7	51	0.8	1	5	22	0.00	30.459 
23:50	15.7	15.7	15.7	51	0.8	1	4	338	0.00	30.465 
23:55	15.7	15.7	15.7	51	0.8	1	4	45	0.00	30.469 

CoCoRaHS
IN-AL-39
A2 Web Hosting
Creative Commons License
GoDaddy
search engine by freefind advanced

loaded 2018-12-19 11:41:40 • last modified 2010-11-18 10:43:29
Privacy PolicyDisclaimer
• wx.awcolley.com is powered by PmWiki v.2002016 •
• all content (unless otherwise noted) © 2018 A W Colley